sensor_id;sensor_type;location;lat;lon;timestamp;P1;durP1;ratioP1;P2;durP2;ratioP2
62584;SDS011;48643;51.670;5.808;2024-01-11T00:01:28;25.42;;;12.52;;
62584;SDS011;48643;51.670;5.808;2024-01-11T00:03:55;24.05;;;11.32;;
62584;SDS011;48643;51.670;5.808;2024-01-11T00:06:22;24.92;;;11.48;;
62584;SDS011;48643;51.670;5.808;2024-01-11T00:08:49;24.10;;;11.57;;
62584;SDS011;48643;51.670;5.808;2024-01-11T00:11:16;21.02;;;10.82;;
62584;SDS011;48643;51.670;5.808;2024-01-11T00:13:44;24.42;;;11.95;;
62584;SDS011;48643;51.670;5.808;2024-01-11T00:16:10;22.38;;;11.30;;
62584;SDS011;48643;51.670;5.808;2024-01-11T00:18:37;22.42;;;11.07;;
62584;SDS011;48643;51.670;5.808;2024-01-11T00:21:04;26.25;;;12.63;;
62584;SDS011;48643;51.670;5.808;2024-01-11T00:23:31;23.85;;;11.52;;
62584;SDS011;48643;51.670;5.808;2024-01-11T00:25:58;24.75;;;11.95;;
62584;SDS011;48643;51.670;5.808;2024-01-11T00:28:26;23.02;;;12.18;;
62584;SDS011;48643;51.670;5.808;2024-01-11T00:30:52;25.98;;;11.70;;
62584;SDS011;48643;51.670;5.808;2024-01-11T00:33:19;24.23;;;11.75;;
62584;SDS011;48643;51.670;5.808;2024-01-11T00:35:46;24.02;;;11.75;;
62584;SDS011;48643;51.670;5.808;2024-01-11T00:38:13;25.88;;;12.07;;
62584;SDS011;48643;51.670;5.808;2024-01-11T00:40:40;22.25;;;11.57;;
62584;SDS011;48643;51.670;5.808;2024-01-11T00:43:07;24.42;;;11.43;;
62584;SDS011;48643;51.670;5.808;2024-01-11T00:45:34;26.15;;;12.27;;
62584;SDS011;48643;51.670;5.808;2024-01-11T00:48:01;24.02;;;12.30;;
62584;SDS011;48643;51.670;5.808;2024-01-11T00:50:29;25.75;;;11.55;;
62584;SDS011;48643;51.670;5.808;2024-01-11T00:52:56;22.90;;;11.55;;
62584;SDS011;48643;51.670;5.808;2024-01-11T00:55:23;25.50;;;12.32;;
62584;SDS011;48643;51.670;5.808;2024-01-11T00:57:50;25.25;;;11.95;;
62584;SDS011;48643;51.670;5.808;2024-01-11T01:00:17;26.38;;;12.50;;
62584;SDS011;48643;51.670;5.808;2024-01-11T01:02:44;24.63;;;11.30;;
62584;SDS011;48643;51.670;5.808;2024-01-11T01:05:11;26.77;;;12.38;;
62584;SDS011;48643;51.670;5.808;2024-01-11T01:07:38;26.30;;;11.95;;
62584;SDS011;48643;51.670;5.808;2024-01-11T01:10:06;24.02;;;11.68;;
62584;SDS011;48643;51.670;5.808;2024-01-11T01:12:34;25.25;;;12.18;;
62584;SDS011;48643;51.670;5.808;2024-01-11T01:15:01;26.85;;;12.10;;
62584;SDS011;48643;51.670;5.808;2024-01-11T01:17:28;25.08;;;11.68;;
62584;SDS011;48643;51.670;5.808;2024-01-11T01:19:55;26.67;;;12.75;;
62584;SDS011;48643;51.670;5.808;2024-01-11T01:22:23;24.48;;;11.52;;
62584;SDS011;48643;51.670;5.808;2024-01-11T01:24:51;26.90;;;11.95;;
62584;SDS011;48643;51.670;5.808;2024-01-11T01:27:18;28.75;;;12.48;;
62584;SDS011;48643;51.670;5.808;2024-01-11T01:29:45;26.30;;;12.15;;
62584;SDS011;48643;51.670;5.808;2024-01-11T01:32:12;24.08;;;11.60;;
62584;SDS011;48643;51.670;5.808;2024-01-11T01:34:39;24.98;;;12.02;;
62584;SDS011;48643;51.670;5.808;2024-01-11T01:37:06;26.50;;;12.02;;
62584;SDS011;48643;51.670;5.808;2024-01-11T01:39:36;30.33;;;12.50;;
62584;SDS011;48643;51.670;5.808;2024-01-11T01:42:05;24.10;;;11.95;;
62584;SDS011;48643;51.670;5.808;2024-01-11T01:44:33;24.70;;;11.95;;
62584;SDS011;48643;51.670;5.808;2024-01-11T01:47:00;26.25;;;12.15;;
62584;SDS011;48643;51.670;5.808;2024-01-11T01:49:29;24.90;;;12.00;;
62584;SDS011;48643;51.670;5.808;2024-01-11T01:51:56;24.70;;;12.35;;
62584;SDS011;48643;51.670;5.808;2024-01-11T01:54:23;27.15;;;12.50;;
62584;SDS011;48643;51.670;5.808;2024-01-11T01:56:51;25.80;;;11.98;;
62584;SDS011;48643;51.670;5.808;2024-01-11T01:59:18;32.40;;;12.50;;
62584;SDS011;48643;51.670;5.808;2024-01-11T02:01:46;25.13;;;12.32;;
62584;SDS011;48643;51.670;5.808;2024-01-11T02:04:13;25.48;;;11.43;;
62584;SDS011;48643;51.670;5.808;2024-01-11T02:06:41;27.10;;;12.45;;
62584;SDS011;48643;51.670;5.808;2024-01-11T02:09:14;27.92;;;12.50;;
62584;SDS011;48643;51.670;5.808;2024-01-11T02:11:41;27.60;;;12.52;;
62584;SDS011;48643;51.670;5.808;2024-01-11T02:14:08;23.58;;;11.80;;
62584;SDS011;48643;51.670;5.808;2024-01-11T02:16:37;25.63;;;12.27;;
62584;SDS011;48643;51.670;5.808;2024-01-11T02:19:04;23.38;;;11.75;;
62584;SDS011;48643;51.670;5.808;2024-01-11T02:21:33;28.15;;;13.23;;
62584;SDS011;48643;51.670;5.808;2024-01-11T02:24:04;27.85;;;12.18;;
62584;SDS011;48643;51.670;5.808;2024-01-11T02:26:31;27.90;;;12.45;;
62584;SDS011;48643;51.670;5.808;2024-01-11T02:28:58;26.08;;;12.70;;
62584;SDS011;48643;51.670;5.808;2024-01-11T02:31:25;25.25;;;12.45;;
62584;SDS011;48643;51.670;5.808;2024-01-11T02:33:52;26.23;;;12.38;;
62584;SDS011;48643;51.670;5.808;2024-01-11T02:36:23;28.27;;;12.15;;
62584;SDS011;48643;51.670;5.808;2024-01-11T02:38:52;25.27;;;11.98;;
62584;SDS011;48643;51.670;5.808;2024-01-11T02:41:19;28.92;;;12.23;;
62584;SDS011;48643;51.670;5.808;2024-01-11T02:43:47;26.55;;;12.45;;
62584;SDS011;48643;51.670;5.808;2024-01-11T02:46:15;28.40;;;12.48;;
62584;SDS011;48643;51.670;5.808;2024-01-11T02:48:42;28.55;;;12.70;;
62584;SDS011;48643;51.670;5.808;2024-01-11T02:51:09;30.88;;;12.70;;
62584;SDS011;48643;51.670;5.808;2024-01-11T02:53:35;29.60;;;12.50;;
62584;SDS011;48643;51.670;5.808;2024-01-11T02:56:02;26.00;;;11.10;;
62584;SDS011;48643;51.670;5.808;2024-01-11T02:58:30;27.42;;;12.60;;
62584;SDS011;48643;51.670;5.808;2024-01-11T03:00:57;27.33;;;12.23;;
62584;SDS011;48643;51.670;5.808;2024-01-11T03:03:24;27.00;;;12.80;;
62584;SDS011;48643;51.670;5.808;2024-01-11T03:05:51;28.77;;;13.10;;
62584;SDS011;48643;51.670;5.808;2024-01-11T03:08:18;27.23;;;12.50;;
62584;SDS011;48643;51.670;5.808;2024-01-11T03:10:45;28.10;;;12.38;;
62584;SDS011;48643;51.670;5.808;2024-01-11T03:13:12;24.52;;;11.65;;
62584;SDS011;48643;51.670;5.808;2024-01-11T03:15:39;27.70;;;12.40;;
62584;SDS011;48643;51.670;5.808;2024-01-11T03:18:06;26.10;;;12.05;;
62584;SDS011;48643;51.670;5.808;2024-01-11T03:20:33;27.80;;;12.68;;
62584;SDS011;48643;51.670;5.808;2024-01-11T03:23:01;27.08;;;11.95;;
62584;SDS011;48643;51.670;5.808;2024-01-11T03:25:28;27.17;;;12.30;;
62584;SDS011;48643;51.670;5.808;2024-01-11T03:27:56;22.67;;;11.32;;
62584;SDS011;48643;51.670;5.808;2024-01-11T03:30:24;27.88;;;12.05;;
62584;SDS011;48643;51.670;5.808;2024-01-11T03:32:51;23.75;;;11.05;;
62584;SDS011;48643;51.670;5.808;2024-01-11T03:35:18;24.55;;;11.30;;
62584;SDS011;48643;51.670;5.808;2024-01-11T03:37:45;24.30;;;11.80;;
62584;SDS011;48643;51.670;5.808;2024-01-11T03:40:12;26.48;;;11.45;;
62584;SDS011;48643;51.670;5.808;2024-01-11T03:42:41;24.50;;;11.68;;
62584;SDS011;48643;51.670;5.808;2024-01-11T03:45:09;27.17;;;11.75;;
62584;SDS011;48643;51.670;5.808;2024-01-11T03:47:36;22.92;;;11.60;;
62584;SDS011;48643;51.670;5.808;2024-01-11T03:50:03;22.63;;;11.52;;
62584;SDS011;48643;51.670;5.808;2024-01-11T03:52:30;28.02;;;12.20;;
62584;SDS011;48643;51.670;5.808;2024-01-11T03:54:57;24.58;;;11.88;;
62584;SDS011;48643;51.670;5.808;2024-01-11T03:57:24;30.30;;;12.20;;
62584;SDS011;48643;51.670;5.808;2024-01-11T03:59:50;24.75;;;10.85;;
62584;SDS011;48643;51.670;5.808;2024-01-11T04:02:17;26.90;;;12.00;;
62584;SDS011;48643;51.670;5.808;2024-01-11T04:04:44;26.08;;;11.55;;
62584;SDS011;48643;51.670;5.808;2024-01-11T04:07:11;24.50;;;11.70;;
62584;SDS011;48643;51.670;5.808;2024-01-11T04:09:38;26.08;;;11.70;;
62584;SDS011;48643;51.670;5.808;2024-01-11T04:12:05;27.30;;;11.27;;
62584;SDS011;48643;51.670;5.808;2024-01-11T04:14:37;26.23;;;11.35;;
62584;SDS011;48643;51.670;5.808;2024-01-11T04:17:06;24.05;;;11.68;;
62584;SDS011;48643;51.670;5.808;2024-01-11T04:19:33;24.58;;;11.05;;
62584;SDS011;48643;51.670;5.808;2024-01-11T04:22:00;21.95;;;10.80;;
62584;SDS011;48643;51.670;5.808;2024-01-11T04:24:26;23.73;;;11.07;;
62584;SDS011;48643;51.670;5.808;2024-01-11T04:26:53;25.35;;;11.07;;
62584;SDS011;48643;51.670;5.808;2024-01-11T04:29:20;26.23;;;10.80;;
62584;SDS011;48643;51.670;5.808;2024-01-11T04:31:47;25.10;;;11.05;;
62584;SDS011;48643;51.670;5.808;2024-01-11T04:34:14;23.70;;;11.32;;
62584;SDS011;48643;51.670;5.808;2024-01-11T04:36:41;23.55;;;10.65;;
62584;SDS011;48643;51.670;5.808;2024-01-11T04:39:08;23.77;;;11.38;;
62584;SDS011;48643;51.670;5.808;2024-01-11T04:41:35;20.05;;;10.45;;
62584;SDS011;48643;51.670;5.808;2024-01-11T04:44:03;21.70;;;10.25;;
62584;SDS011;48643;51.670;5.808;2024-01-11T04:46:31;22.40;;;10.45;;
62584;SDS011;48643;51.670;5.808;2024-01-11T04:48:58;20.23;;;10.10;;
62584;SDS011;48643;51.670;5.808;2024-01-11T04:51:25;20.85;;;10.07;;
62584;SDS011;48643;51.670;5.808;2024-01-11T04:53:51;23.60;;;11.13;;
62584;SDS011;48643;51.670;5.808;2024-01-11T04:56:18;21.05;;;10.43;;
62584;SDS011;48643;51.670;5.808;2024-01-11T04:58:45;19.73;;;10.05;;
62584;SDS011;48643;51.670;5.808;2024-01-11T05:01:13;23.02;;;10.13;;
62584;SDS011;48643;51.670;5.808;2024-01-11T05:03:42;19.60;;;10.20;;
62584;SDS011;48643;51.670;5.808;2024-01-11T05:06:19;22.60;;;10.15;;
62584;SDS011;48643;51.670;5.808;2024-01-11T05:08:47;23.98;;;10.57;;
62584;SDS011;48643;51.670;5.808;2024-01-11T05:11:15;20.80;;;10.68;;
62584;SDS011;48643;51.670;5.808;2024-01-11T05:13:43;21.02;;;10.40;;
62584;SDS011;48643;51.670;5.808;2024-01-11T05:16:23;21.88;;;10.90;;
62584;SDS011;48643;51.670;5.808;2024-01-11T05:18:51;22.15;;;10.35;;
62584;SDS011;48643;51.670;5.808;2024-01-11T05:21:19;22.00;;;10.38;;
62584;SDS011;48643;51.670;5.808;2024-01-11T05:23:46;25.67;;;11.07;;
62584;SDS011;48643;51.670;5.808;2024-01-11T05:26:14;23.67;;;10.57;;
62584;SDS011;48643;51.670;5.808;2024-01-11T05:28:42;24.23;;;9.93;;
62584;SDS011;48643;51.670;5.808;2024-01-11T05:31:12;19.48;;;10.15;;
62584;SDS011;48643;51.670;5.808;2024-01-11T05:33:45;21.38;;;10.25;;
62584;SDS011;48643;51.670;5.808;2024-01-11T05:36:13;23.70;;;10.40;;
62584;SDS011;48643;51.670;5.808;2024-01-11T05:38:41;22.50;;;10.88;;
62584;SDS011;48643;51.670;5.808;2024-01-11T05:41:08;23.00;;;9.63;;
62584;SDS011;48643;51.670;5.808;2024-01-11T05:43:37;21.55;;;9.95;;
62584;SDS011;48643;51.670;5.808;2024-01-11T05:46:04;20.17;;;10.43;;
62584;SDS011;48643;51.670;5.808;2024-01-11T05:48:31;21.08;;;10.23;;
62584;SDS011;48643;51.670;5.808;2024-01-11T05:50:58;21.88;;;10.27;;
62584;SDS011;48643;51.670;5.808;2024-01-11T05:53:26;21.58;;;10.43;;
62584;SDS011;48643;51.670;5.808;2024-01-11T05:55:54;20.27;;;9.55;;
62584;SDS011;48643;51.670;5.808;2024-01-11T05:58:21;23.23;;;10.38;;
62584;SDS011;48643;51.670;5.808;2024-01-11T06:00:47;22.23;;;10.50;;
62584;SDS011;48643;51.670;5.808;2024-01-11T06:03:14;22.98;;;10.07;;
62584;SDS011;48643;51.670;5.808;2024-01-11T06:05:41;21.80;;;10.43;;
62584;SDS011;48643;51.670;5.808;2024-01-11T06:08:09;21.70;;;10.40;;
62584;SDS011;48643;51.670;5.808;2024-01-11T06:10:36;20.65;;;10.10;;
62584;SDS011;48643;51.670;5.808;2024-01-11T06:13:04;22.60;;;10.00;;
62584;SDS011;48643;51.670;5.808;2024-01-11T06:15:31;23.45;;;10.43;;
62584;SDS011;48643;51.670;5.808;2024-01-11T06:17:58;21.67;;;10.07;;
62584;SDS011;48643;51.670;5.808;2024-01-11T06:20:25;23.52;;;10.63;;
62584;SDS011;48643;51.670;5.808;2024-01-11T06:22:52;19.88;;;9.95;;
62584;SDS011;48643;51.670;5.808;2024-01-11T06:25:20;19.33;;;9.38;;
62584;SDS011;48643;51.670;5.808;2024-01-11T06:27:46;26.25;;;11.25;;
62584;SDS011;48643;51.670;5.808;2024-01-11T06:30:14;28.52;;;11.95;;
62584;SDS011;48643;51.670;5.808;2024-01-11T06:32:41;26.77;;;11.90;;
62584;SDS011;48643;51.670;5.808;2024-01-11T06:35:08;22.85;;;11.02;;
62584;SDS011;48643;51.670;5.808;2024-01-11T06:37:35;24.63;;;11.05;;
62584;SDS011;48643;51.670;5.808;2024-01-11T06:40:02;24.20;;;10.07;;
62584;SDS011;48643;51.670;5.808;2024-01-11T06:42:30;24.83;;;10.60;;
62584;SDS011;48643;51.670;5.808;2024-01-11T06:44:57;26.05;;;10.80;;
62584;SDS011;48643;51.670;5.808;2024-01-11T06:47:24;22.13;;;10.07;;
62584;SDS011;48643;51.670;5.808;2024-01-11T06:49:51;24.05;;;10.27;;
62584;SDS011;48643;51.670;5.808;2024-01-11T06:52:19;22.85;;;10.65;;
62584;SDS011;48643;51.670;5.808;2024-01-11T06:54:46;22.90;;;10.15;;
62584;SDS011;48643;51.670;5.808;2024-01-11T06:57:12;21.55;;;10.18;;
62584;SDS011;48643;51.670;5.808;2024-01-11T06:59:40;23.08;;;10.75;;
62584;SDS011;48643;51.670;5.808;2024-01-11T07:02:06;21.58;;;9.90;;
62584;SDS011;48643;51.670;5.808;2024-01-11T07:04:33;21.52;;;10.52;;
62584;SDS011;48643;51.670;5.808;2024-01-11T07:07:01;24.35;;;11.18;;
62584;SDS011;48643;51.670;5.808;2024-01-11T07:09:30;23.55;;;10.65;;
62584;SDS011;48643;51.670;5.808;2024-01-11T07:11:57;22.60;;;10.13;;
62584;SDS011;48643;51.670;5.808;2024-01-11T07:14:24;21.98;;;9.82;;
62584;SDS011;48643;51.670;5.808;2024-01-11T07:16:51;24.23;;;10.13;;
62584;SDS011;48643;51.670;5.808;2024-01-11T07:19:18;22.65;;;10.43;;
62584;SDS011;48643;51.670;5.808;2024-01-11T07:21:45;23.63;;;10.25;;
62584;SDS011;48643;51.670;5.808;2024-01-11T07:24:12;23.83;;;10.75;;
62584;SDS011;48643;51.670;5.808;2024-01-11T07:26:39;21.38;;;10.25;;
62584;SDS011;48643;51.670;5.808;2024-01-11T07:29:06;22.23;;;10.57;;
62584;SDS011;48643;51.670;5.808;2024-01-11T07:31:33;21.08;;;9.93;;
62584;SDS011;48643;51.670;5.808;2024-01-11T07:34:00;22.88;;;10.68;;
62584;SDS011;48643;51.670;5.808;2024-01-11T07:36:27;20.85;;;10.13;;
62584;SDS011;48643;51.670;5.808;2024-01-11T07:38:54;24.20;;;10.48;;
62584;SDS011;48643;51.670;5.808;2024-01-11T07:41:21;23.85;;;10.45;;
62584;SDS011;48643;51.670;5.808;2024-01-11T07:43:49;21.25;;;10.45;;
62584;SDS011;48643;51.670;5.808;2024-01-11T07:46:20;23.42;;;10.73;;
62584;SDS011;48643;51.670;5.808;2024-01-11T07:49:01;21.27;;;10.02;;
62584;SDS011;48643;51.670;5.808;2024-01-11T07:51:29;25.95;;;11.32;;
62584;SDS011;48643;51.670;5.808;2024-01-11T07:53:56;23.38;;;10.77;;
62584;SDS011;48643;51.670;5.808;2024-01-11T07:56:23;23.67;;;10.77;;
62584;SDS011;48643;51.670;5.808;2024-01-11T07:58:49;22.65;;;10.85;;
62584;SDS011;48643;51.670;5.808;2024-01-11T08:01:16;29.20;;;12.48;;
62584;SDS011;48643;51.670;5.808;2024-01-11T08:03:43;42.45;;;16.15;;
62584;SDS011;48643;51.670;5.808;2024-01-11T08:06:14;33.03;;;15.43;;
62584;SDS011;48643;51.670;5.808;2024-01-11T08:08:41;30.95;;;14.07;;
62584;SDS011;48643;51.670;5.808;2024-01-11T08:11:09;32.25;;;14.55;;
62584;SDS011;48643;51.670;5.808;2024-01-11T08:13:38;31.13;;;13.85;;
62584;SDS011;48643;51.670;5.808;2024-01-11T08:16:05;28.23;;;14.57;;
62584;SDS011;48643;51.670;5.808;2024-01-11T08:18:36;30.15;;;14.07;;
62584;SDS011;48643;51.670;5.808;2024-01-11T08:21:03;27.27;;;13.25;;
62584;SDS011;48643;51.670;5.808;2024-01-11T08:23:36;33.40;;;14.15;;
62584;SDS011;48643;51.670;5.808;2024-01-11T08:26:07;34.72;;;13.75;;
62584;SDS011;48643;51.670;5.808;2024-01-11T08:28:34;27.05;;;13.30;;
62584;SDS011;48643;51.670;5.808;2024-01-11T08:31:01;26.50;;;12.90;;
62584;SDS011;48643;51.670;5.808;2024-01-11T08:35:58;24.33;;;12.55;;
62584;SDS011;48643;51.670;5.808;2024-01-11T08:38:25;29.27;;;13.55;;
62584;SDS011;48643;51.670;5.808;2024-01-11T08:40:52;28.15;;;12.75;;
62584;SDS011;48643;51.670;5.808;2024-01-11T08:43:19;26.38;;;12.50;;
62584;SDS011;48643;51.670;5.808;2024-01-11T08:45:46;27.95;;;13.35;;
62584;SDS011;48643;51.670;5.808;2024-01-11T08:48:15;24.65;;;12.27;;
62584;SDS011;48643;51.670;5.808;2024-01-11T08:50:42;25.17;;;11.88;;
62584;SDS011;48643;51.670;5.808;2024-01-11T08:53:09;23.95;;;11.95;;
62584;SDS011;48643;51.670;5.808;2024-01-11T08:55:36;26.23;;;12.93;;
62584;SDS011;48643;51.670;5.808;2024-01-11T08:58:03;28.30;;;13.23;;
62584;SDS011;48643;51.670;5.808;2024-01-11T09:00:30;28.67;;;12.63;;
62584;SDS011;48643;51.670;5.808;2024-01-11T09:02:57;26.40;;;12.73;;
62584;SDS011;48643;51.670;5.808;2024-01-11T09:05:24;27.85;;;12.43;;
62584;SDS011;48643;51.670;5.808;2024-01-11T09:07:51;25.35;;;12.18;;
62584;SDS011;48643;51.670;5.808;2024-01-11T09:10:19;26.17;;;12.02;;
62584;SDS011;48643;51.670;5.808;2024-01-11T09:12:46;26.50;;;12.80;;
62584;SDS011;48643;51.670;5.808;2024-01-11T09:15:13;25.85;;;11.85;;
62584;SDS011;48643;51.670;5.808;2024-01-11T09:17:40;27.58;;;12.77;;
62584;SDS011;48643;51.670;5.808;2024-01-11T09:20:08;24.42;;;12.15;;
62584;SDS011;48643;51.670;5.808;2024-01-11T09:22:35;26.63;;;12.18;;
62584;SDS011;48643;51.670;5.808;2024-01-11T09:25:02;25.02;;;12.18;;
62584;SDS011;48643;51.670;5.808;2024-01-11T09:27:30;25.25;;;12.40;;
62584;SDS011;48643;51.670;5.808;2024-01-11T09:29:56;24.67;;;12.55;;
62584;SDS011;48643;51.670;5.808;2024-01-11T09:32:23;27.55;;;12.57;;
62584;SDS011;48643;51.670;5.808;2024-01-11T09:34:52;24.20;;;11.68;;
62584;SDS011;48643;51.670;5.808;2024-01-11T09:37:18;23.95;;;11.40;;
62584;SDS011;48643;51.670;5.808;2024-01-11T09:39:46;27.75;;;11.55;;
62584;SDS011;48643;51.670;5.808;2024-01-11T09:42:13;24.60;;;11.50;;
62584;SDS011;48643;51.670;5.808;2024-01-11T09:44:40;21.58;;;11.20;;
62584;SDS011;48643;51.670;5.808;2024-01-11T09:47:08;25.25;;;10.43;;
62584;SDS011;48643;51.670;5.808;2024-01-11T09:49:41;21.65;;;10.68;;
62584;SDS011;48643;51.670;5.808;2024-01-11T09:52:09;22.67;;;10.80;;
62584;SDS011;48643;51.670;5.808;2024-01-11T09:54:39;23.92;;;10.65;;
62584;SDS011;48643;51.670;5.808;2024-01-11T09:57:07;21.63;;;10.82;;
62584;SDS011;48643;51.670;5.808;2024-01-11T09:59:35;25.03;;;12.00;;
62584;SDS011;48643;51.670;5.808;2024-01-11T10:02:03;22.85;;;10.77;;
62584;SDS011;48643;51.670;5.808;2024-01-11T10:04:34;21.05;;;10.55;;
62584;SDS011;48643;51.670;5.808;2024-01-11T10:07:03;22.75;;;11.05;;
62584;SDS011;48643;51.670;5.808;2024-01-11T10:09:31;18.95;;;10.18;;
62584;SDS011;48643;51.670;5.808;2024-01-11T10:11:58;22.35;;;10.40;;
62584;SDS011;48643;51.670;5.808;2024-01-11T10:14:25;22.08;;;10.65;;
62584;SDS011;48643;51.670;5.808;2024-01-11T10:16:53;23.60;;;11.10;;
62584;SDS011;48643;51.670;5.808;2024-01-11T10:19:21;20.52;;;10.13;;
62584;SDS011;48643;51.670;5.808;2024-01-11T10:21:48;20.85;;;10.35;;
62584;SDS011;48643;51.670;5.808;2024-01-11T10:24:19;21.13;;;9.68;;
62584;SDS011;48643;51.670;5.808;2024-01-11T10:26:55;20.75;;;10.23;;
62584;SDS011;48643;51.670;5.808;2024-01-11T10:29:30;20.73;;;9.85;;
62584;SDS011;48643;51.670;5.808;2024-01-11T10:31:57;21.15;;;10.32;;
62584;SDS011;48643;51.670;5.808;2024-01-11T10:34:24;18.85;;;10.25;;
62584;SDS011;48643;51.670;5.808;2024-01-11T10:36:51;19.15;;;10.20;;
62584;SDS011;48643;51.670;5.808;2024-01-11T10:39:19;19.52;;;9.75;;
62584;SDS011;48643;51.670;5.808;2024-01-11T10:42:04;20.27;;;10.40;;
62584;SDS011;48643;51.670;5.808;2024-01-11T10:44:34;20.65;;;10.32;;
62584;SDS011;48643;51.670;5.808;2024-01-11T10:47:02;18.27;;;10.15;;
62584;SDS011;48643;51.670;5.808;2024-01-11T10:49:33;19.45;;;9.70;;
62584;SDS011;48643;51.670;5.808;2024-01-11T10:52:01;18.08;;;9.80;;
62584;SDS011;48643;51.670;5.808;2024-01-11T10:54:29;18.83;;;10.07;;
62584;SDS011;48643;51.670;5.808;2024-01-11T10:56:58;21.77;;;10.45;;
62584;SDS011;48643;51.670;5.808;2024-01-11T10:59:31;18.70;;;10.20;;
62584;SDS011;48643;51.670;5.808;2024-01-11T11:02:00;19.08;;;9.45;;
62584;SDS011;48643;51.670;5.808;2024-01-11T11:04:32;20.65;;;10.73;;
62584;SDS011;48643;51.670;5.808;2024-01-11T11:07:01;21.75;;;10.68;;
62584;SDS011;48643;51.670;5.808;2024-01-11T11:09:29;19.13;;;9.80;;
62584;SDS011;48643;51.670;5.808;2024-01-11T11:11:58;18.70;;;9.77;;
62584;SDS011;48643;51.670;5.808;2024-01-11T11:14:25;19.13;;;10.00;;
62584;SDS011;48643;51.670;5.808;2024-01-11T11:16:52;20.77;;;9.73;;
62584;SDS011;48643;51.670;5.808;2024-01-11T11:19:20;21.95;;;10.68;;
62584;SDS011;48643;51.670;5.808;2024-01-11T11:21:47;24.33;;;10.57;;
62584;SDS011;48643;51.670;5.808;2024-01-11T11:24:16;23.42;;;10.55;;
62584;SDS011;48643;51.670;5.808;2024-01-11T11:26:43;35.13;;;17.30;;
62584;SDS011;48643;51.670;5.808;2024-01-11T11:29:10;30.77;;;15.35;;
62584;SDS011;48643;51.670;5.808;2024-01-11T11:31:37;32.28;;;15.45;;
62584;SDS011;48643;51.670;5.808;2024-01-11T11:34:14;32.03;;;15.45;;
62584;SDS011;48643;51.670;5.808;2024-01-11T11:36:41;31.35;;;16.05;;
62584;SDS011;48643;51.670;5.808;2024-01-11T11:39:09;31.58;;;15.38;;
62584;SDS011;48643;51.670;5.808;2024-01-11T11:41:39;32.17;;;15.45;;
62584;SDS011;48643;51.670;5.808;2024-01-11T11:44:08;30.73;;;15.30;;
62584;SDS011;48643;51.670;5.808;2024-01-11T11:46:40;28.38;;;15.27;;
62584;SDS011;48643;51.670;5.808;2024-01-11T11:49:07;30.00;;;15.23;;
62584;SDS011;48643;51.670;5.808;2024-01-11T11:51:36;30.70;;;15.05;;
62584;SDS011;48643;51.670;5.808;2024-01-11T11:54:05;28.13;;;14.55;;
62584;SDS011;48643;51.670;5.808;2024-01-11T11:56:33;29.02;;;14.70;;
62584;SDS011;48643;51.670;5.808;2024-01-11T11:59:00;29.67;;;14.77;;
62584;SDS011;48643;51.670;5.808;2024-01-11T12:01:29;27.38;;;15.00;;
62584;SDS011;48643;51.670;5.808;2024-01-11T12:03:57;27.25;;;14.27;;
62584;SDS011;48643;51.670;5.808;2024-01-11T12:06:24;23.67;;;13.50;;
62584;SDS011;48643;51.670;5.808;2024-01-11T12:11:24;27.80;;;13.57;;
62584;SDS011;48643;51.670;5.808;2024-01-11T12:13:51;25.63;;;15.02;;
62584;SDS011;48643;51.670;5.808;2024-01-11T12:16:19;20.00;;;11.95;;
62584;SDS011;48643;51.670;5.808;2024-01-11T12:18:48;22.35;;;11.75;;
62584;SDS011;48643;51.670;5.808;2024-01-11T12:21:15;20.57;;;12.47;;
62584;SDS011;48643;51.670;5.808;2024-01-11T12:23:43;20.85;;;11.85;;
62584;SDS011;48643;51.670;5.808;2024-01-11T12:26:10;18.27;;;11.80;;
62584;SDS011;48643;51.670;5.808;2024-01-11T12:28:41;21.10;;;11.88;;
62584;SDS011;48643;51.670;5.808;2024-01-11T12:31:10;22.65;;;11.90;;
62584;SDS011;48643;51.670;5.808;2024-01-11T12:33:39;22.33;;;13.17;;
62584;SDS011;48643;51.670;5.808;2024-01-11T12:36:07;19.23;;;13.90;;
62584;SDS011;48643;51.670;5.808;2024-01-11T12:38:35;24.15;;;12.85;;
62584;SDS011;48643;51.670;5.808;2024-01-11T12:41:03;20.33;;;12.48;;
62584;SDS011;48643;51.670;5.808;2024-01-11T12:43:30;20.33;;;13.43;;
62584;SDS011;48643;51.670;5.808;2024-01-11T12:45:57;18.70;;;12.70;;
62584;SDS011;48643;51.670;5.808;2024-01-11T12:48:24;19.15;;;13.45;;
62584;SDS011;48643;51.670;5.808;2024-01-11T12:50:52;20.88;;;15.20;;
62584;SDS011;48643;51.670;5.808;2024-01-11T12:53:39;17.67;;;10.05;;
62584;SDS011;48643;51.670;5.808;2024-01-11T12:56:07;20.80;;;9.73;;
62584;SDS011;48643;51.670;5.808;2024-01-11T12:58:38;16.75;;;9.35;;
62584;SDS011;48643;51.670;5.808;2024-01-11T13:01:06;15.73;;;9.25;;
62584;SDS011;48643;51.670;5.808;2024-01-11T13:03:34;16.70;;;9.23;;
62584;SDS011;48643;51.670;5.808;2024-01-11T13:06:05;15.60;;;8.98;;
62584;SDS011;48643;51.670;5.808;2024-01-11T13:08:32;15.23;;;8.88;;
62584;SDS011;48643;51.670;5.808;2024-01-11T13:11:03;16.00;;;8.85;;
62584;SDS011;48643;51.670;5.808;2024-01-11T13:13:33;15.30;;;8.55;;
62584;SDS011;48643;51.670;5.808;2024-01-11T13:16:01;16.45;;;8.80;;
62584;SDS011;48643;51.670;5.808;2024-01-11T13:18:32;14.77;;;8.40;;
62584;SDS011;48643;51.670;5.808;2024-01-11T13:20:59;14.40;;;8.10;;
62584;SDS011;48643;51.670;5.808;2024-01-11T13:23:26;14.95;;;8.20;;
62584;SDS011;48643;51.670;5.808;2024-01-11T13:25:53;13.32;;;8.07;;
62584;SDS011;48643;51.670;5.808;2024-01-11T13:28:20;15.27;;;7.88;;
62584;SDS011;48643;51.670;5.808;2024-01-11T13:30:47;13.55;;;7.32;;
62584;SDS011;48643;51.670;5.808;2024-01-11T13:33:15;16.07;;;7.50;;
62584;SDS011;48643;51.670;5.808;2024-01-11T13:35:44;13.13;;;7.75;;
62584;SDS011;48643;51.670;5.808;2024-01-11T13:38:12;14.88;;;7.88;;
62584;SDS011;48643;51.670;5.808;2024-01-11T13:40:39;14.48;;;7.88;;
62584;SDS011;48643;51.670;5.808;2024-01-11T13:43:07;13.18;;;7.30;;
62584;SDS011;48643;51.670;5.808;2024-01-11T13:45:34;12.93;;;7.30;;
62584;SDS011;48643;51.670;5.808;2024-01-11T13:48:05;16.85;;;8.00;;
62584;SDS011;48643;51.670;5.808;2024-01-11T13:50:32;15.07;;;7.35;;
62584;SDS011;48643;51.670;5.808;2024-01-11T13:53:00;12.70;;;7.25;;
62584;SDS011;48643;51.670;5.808;2024-01-11T13:55:28;12.18;;;7.13;;
62584;SDS011;48643;51.670;5.808;2024-01-11T13:58:05;12.60;;;7.18;;
62584;SDS011;48643;51.670;5.808;2024-01-11T14:00:32;13.82;;;7.22;;
62584;SDS011;48643;51.670;5.808;2024-01-11T14:02:59;12.05;;;6.68;;
62584;SDS011;48643;51.670;5.808;2024-01-11T14:05:26;14.88;;;7.15;;
62584;SDS011;48643;51.670;5.808;2024-01-11T14:07:53;14.70;;;7.22;;
62584;SDS011;48643;51.670;5.808;2024-01-11T14:10:25;14.15;;;6.70;;
62584;SDS011;48643;51.670;5.808;2024-01-11T14:12:53;13.37;;;6.83;;
62584;SDS011;48643;51.670;5.808;2024-01-11T14:15:20;11.65;;;6.63;;
62584;SDS011;48643;51.670;5.808;2024-01-11T14:17:47;13.10;;;7.05;;
62584;SDS011;48643;51.670;5.808;2024-01-11T14:20:15;11.75;;;6.60;;
62584;SDS011;48643;51.670;5.808;2024-01-11T14:22:43;13.13;;;6.95;;
62584;SDS011;48643;51.670;5.808;2024-01-11T14:25:14;12.00;;;6.78;;
62584;SDS011;48643;51.670;5.808;2024-01-11T14:27:44;13.93;;;6.97;;
62584;SDS011;48643;51.670;5.808;2024-01-11T14:30:12;11.88;;;6.57;;
62584;SDS011;48643;51.670;5.808;2024-01-11T14:32:39;12.63;;;6.47;;